Time;durP1;ratioP1;P1;durP2;ratioP2;P2;SDS_P1;SDS_P2;PMS_P1;PMS_P2;Temp;Humidity;BMP_temperature;BMP_pressure;BME280_temperature;BME280_humidity;BME280_pressure;Samples;Min_cycle;Max_cycle;Signal;HPM_P1;HPM_P2
2022/06/18 00:00:47;;;;;;;6.67;6.07;;;18.10;99.90;;;;;;5054914;28;20618;-72
2022/06/18 00:03:14;;;;;;;6.23;5.63;;;18.10;99.90;;;;;;5055016;28;20508;-69
2022/06/18 00:05:41;;;;;;;6.77;6.17;;;18.10;99.90;;;;;;5054430;28;20956;-68
2022/06/18 00:08:13;;;;;;;5.90;5.40;;;18.10;99.90;;;;;;5054813;28;21031;-71
2022/06/18 00:10:39;;;;;;;7.97;5.80;;;18.00;99.90;;;;;;5054065;28;20485;-71
2022/06/18 00:13:41;;;;;;;6.60;5.77;;;18.00;99.90;;;;;;5055157;28;20857;-72
2022/06/18 00:16:16;;;;;;;5.97;5.47;;;17.90;99.90;;;;;;5055370;28;20233;-71
2022/06/18 00:18:42;;;;;;;6.30;5.80;;;17.90;99.90;;;;;;5053809;28;20536;-71
2022/06/18 00:21:11;;;;;;;8.23;7.27;;;17.90;99.90;;;;;;5054008;28;20512;-67
2022/06/18 00:23:38;;;;;;;7.80;5.20;;;17.90;99.90;;;;;;5055479;28;20871;-68
2022/06/18 00:26:04;;;;;;;5.57;5.07;;;17.90;99.90;;;;;;5054620;28;20475;-71
2022/06/18 00:28:31;;;;;;;5.10;4.60;;;17.90;99.90;;;;;;5053090;28;20494;-68
2022/06/18 00:30:58;;;;;;;10.53;6.60;;;17.90;99.90;;;;;;5055438;28;20248;-68
2022/06/18 00:33:24;;;;;;;6.90;4.80;;;17.90;99.90;;;;;;5053592;28;20429;-71
2022/06/18 00:35:56;;;;;;;5.73;5.30;;;17.90;99.90;;;;;;5054706;28;20453;-68
2022/06/18 00:38:30;;;;;;;6.80;6.20;;;17.90;99.90;;;;;;5052730;28;20453;-72
2022/06/18 00:40:58;;;;;;;5.87;5.33;;;17.90;99.90;;;;;;5055261;28;20482;-72
2022/06/18 00:43:36;;;;;;;5.40;4.90;;;17.90;99.90;;;;;;5054422;28;20421;-69
2022/06/18 00:46:32;;;;;;;6.23;5.63;;;17.90;99.90;;;;;;5053321;28;20439;-68
2022/06/18 00:49:30;;;;;;;6.70;5.10;;;17.90;99.90;;;;;;5046239;28;20477;-70
2022/06/18 00:52:47;;;;;;;5.47;5.00;;;17.90;99.90;;;;;;5054415;28;20421;-68
2022/06/18 00:55:19;;;;;;;5.40;5.00;;;17.90;99.90;;;;;;5006420;28;20483;-72
2022/06/18 00:57:48;;;;;;;5.73;5.27;;;17.80;99.90;;;;;;5053996;28;20402;-69
2022/06/18 01:00:25;;;;;;;5.77;4.53;;;17.80;99.90;;;;;;5054021;28;21459;-72
2022/06/18 01:02:52;;;;;;;5.33;4.83;;;17.80;99.90;;;;;;5052351;28;20467;-71
2022/06/18 01:05:27;;;;;;;4.93;4.53;;;17.80;99.90;;;;;;5055024;28;20440;-68
2022/06/18 01:07:59;;;;;;;5.20;4.90;;;17.80;99.90;;;;;;5033658;28;20829;-68
2022/06/18 01:10:32;;;;;;;5.43;5.03;;;17.80;99.90;;;;;;5054681;28;20394;-67
2022/06/18 01:13:01;;;;;;;5.40;5.00;;;17.70;99.90;;;;;;5052047;28;20999;-71
2022/06/18 01:15:27;;;;;;;6.00;5.30;;;17.70;99.90;;;;;;5053580;28;20845;-70
2022/06/18 01:17:54;;;;;;;6.70;5.20;;;17.60;99.90;;;;;;5051976;28;20433;-68
2022/06/18 01:20:22;;;;;;;4.70;4.40;;;17.60;99.90;;;;;;5054455;28;20397;-71
2022/06/18 01:23:03;;;;;;;6.40;5.80;;;17.60;99.90;;;;;;5035758;28;20410;-71
2022/06/18 01:25:30;;;;;;;5.83;5.33;;;17.60;99.90;;;;;;5052842;28;20444;-68
2022/06/18 01:27:57;;;;;;;4.83;4.53;;;17.60;99.90;;;;;;5051916;28;20433;-70
2022/06/18 01:30:27;;;;;;;5.37;4.97;;;17.60;99.90;;;;;;5054164;28;20417;-69
2022/06/18 01:32:55;;;;;;;6.27;4.60;;;17.70;99.90;;;;;;5035581;28;20409;-71
2022/06/18 01:35:21;;;;;;;7.37;5.13;;;17.70;99.90;;;;;;5051545;28;20467;-68
2022/06/18 01:37:48;;;;;;;5.50;5.00;;;17.70;99.90;;;;;;5053279;28;20400;-68
2022/06/18 01:40:22;;;;;;;4.90;4.40;;;17.70;99.90;;;;;;5051820;28;20941;-68
2022/06/18 01:42:50;;;;;;;4.97;4.47;;;17.60;99.90;;;;;;5053983;28;20917;-71
2022/06/18 01:45:21;;;;;;;5.57;5.17;;;17.70;99.90;;;;;;5052608;28;20941;-72
2022/06/18 01:47:56;;;;;;;5.27;4.77;;;17.60;99.90;;;;;;5053069;28;20905;-68
2022/06/18 01:50:31;;;;;;;4.90;4.50;;;17.60;99.90;;;;;;5052140;28;20463;-69
2022/06/18 01:53:14;;;;;;;4.70;4.40;;;17.60;99.90;;;;;;5053648;28;20459;-71
2022/06/18 01:55:55;;;;;;;5.00;4.60;;;17.60;99.90;;;;;;5051419;28;20580;-72
2022/06/18 01:58:46;;;;;;;5.23;4.73;;;17.50;99.90;;;;;;5051991;28;20437;-70
2022/06/18 02:01:18;;;;;;;4.73;4.33;;;17.60;99.90;;;;;;5033873;28;20421;-68
2022/06/18 02:03:44;;;;;;;6.13;4.87;;;17.60;99.90;;;;;;5033603;28;20413;-69
2022/06/18 02:06:10;;;;;;;6.90;4.60;;;17.60;99.90;;;;;;5034291;28;20445;-70
2022/06/18 02:08:37;;;;;;;5.00;4.60;;;17.60;99.90;;;;;;5052860;28;20198;-72
2022/06/18 02:11:06;;;;;;;7.83;5.27;;;17.60;99.90;;;;;;5051110;28;20433;-68
2022/06/18 02:14:02;;;;;;;4.47;4.17;;;17.50;99.90;;;;;;5036288;28;20417;-67
2022/06/18 02:16:30;;;;;;;4.80;4.40;;;17.60;99.90;;;;;;5051889;28;20437;-70
2022/06/18 02:18:59;;;;;;;6.17;5.13;;;17.60;99.90;;;;;;5053372;28;20409;-68
2022/06/18 02:21:25;;;;;;;4.50;4.20;;;17.60;99.90;;;;;;5048466;28;20489;-69
2022/06/18 02:23:55;;;;;;;4.97;4.57;;;17.70;99.90;;;;;;5053576;28;20390;-72
2022/06/18 02:26:24;;;;;;;5.03;4.60;;;17.70;99.90;;;;;;5033492;28;20751;-72
2022/06/18 02:28:53;;;;;;;4.80;4.40;;;17.70;99.90;;;;;;5052052;28;20841;-68
2022/06/18 02:31:21;;;;;;;4.93;4.30;;;17.80;99.90;;;;;;5050707;28;21713;-68
2022/06/18 02:33:58;;;;;;;4.63;4.33;;;17.80;99.90;;;;;;5035322;28;20509;-68
2022/06/18 02:36:29;;;;;;;5.10;4.60;;;17.80;99.90;;;;;;5051300;28;20913;-70
2022/06/18 02:39:19;;;;;;;4.70;4.30;;;17.80;99.90;;;;;;5033110;28;20468;-72
2022/06/18 02:41:45;;;;;;;4.33;4.03;;;17.90;99.90;;;;;;5033066;28;20429;-68
2022/06/18 02:44:12;;;;;;;5.17;4.67;;;17.80;99.90;;;;;;5035259;28;20914;-71
2022/06/18 02:46:40;;;;;;;4.93;4.10;;;17.80;99.90;;;;;;5050362;28;20425;-68
2022/06/18 02:49:08;;;;;;;5.03;4.63;;;17.80;99.90;;;;;;5052240;28;20449;-68
2022/06/18 02:51:36;;;;;;;4.93;4.50;;;17.80;99.90;;;;;;5050254;28;20479;-72
2022/06/18 02:54:02;;;;;;;4.37;3.97;;;17.80;99.90;;;;;;5052966;28;20417;-68
2022/06/18 02:56:27;;;;;;;4.30;4.00;;;17.80;99.90;;;;;;5051663;28;20417;-71
2022/06/18 02:58:54;;;;;;;4.70;4.40;;;17.70;99.90;;;;;;5051665;28;20472;-68
2022/06/18 03:01:24;;;;;;;4.77;4.27;;;17.70;99.90;;;;;;5050579;28;20663;-72
2022/06/18 03:03:53;;;;;;;4.20;3.90;;;17.70;99.90;;;;;;5052916;28;20398;-69
2022/06/18 03:06:22;;;;;;;4.60;4.30;;;17.70;99.90;;;;;;5051277;28;20410;-71
2022/06/18 03:08:49;;;;;;;4.60;4.30;;;17.70;99.90;;;;;;5051238;28;20460;-71
2022/06/18 03:14:02;;;;;;;5.07;4.67;;;17.70;99.90;;;;;;5032785;28;20544;-69
2022/06/18 03:16:28;;;;;;;4.90;4.40;;;17.80;99.90;;;;;;5033144;28;20479;-70
2022/06/18 03:18:56;;;;;;;5.90;3.50;;;17.70;99.90;;;;;;5051813;28;20449;-68
2022/06/18 03:21:34;;;;;;;4.63;4.23;;;17.70;99.90;;;;;;5050982;28;20433;-70
2022/06/18 03:24:00;;;;;;;4.63;4.23;;;17.80;99.90;;;;;;5052092;28;20451;-68
2022/06/18 03:26:26;;;;;;;4.30;3.90;;;17.70;99.90;;;;;;5033925;28;20409;-69
2022/06/18 03:28:52;;;;;;;4.20;3.80;;;17.70;99.90;;;;;;5032741;28;20853;-69
2022/06/18 03:31:17;;;;;;;4.03;3.73;;;17.70;99.90;;;;;;5051087;28;20191;-71
2022/06/18 03:33:43;;;;;;;7.33;4.07;;;17.70;99.90;;;;;;5051408;28;20434;-73
2022/06/18 03:36:11;;;;;;;4.30;3.90;;;17.70;99.90;;;;;;5053630;28;20199;-72
2022/06/18 03:38:39;;;;;;;6.00;4.70;;;17.60;99.90;;;;;;5051870;28;20562;-72
2022/06/18 03:41:09;;;;;;;4.90;4.53;;;17.70;99.90;;;;;;5035117;28;20437;-71
2022/06/18 03:43:35;;;;;;;5.40;3.90;;;17.60;99.90;;;;;;5035000;28;20469;-74
2022/06/18 03:46:08;;;;;;;5.47;4.97;;;17.60;99.90;;;;;;5035740;28;20504;-70
2022/06/18 03:48:55;;;;;;;4.93;4.37;;;17.70;99.90;;;;;;5050820;28;20468;-68
2022/06/18 03:51:21;;;;;;;3.50;3.27;;;17.60;99.90;;;;;;5035419;28;20424;-71
2022/06/18 03:53:48;;;;;;;4.50;4.10;;;17.70;99.90;;;;;;5051917;28;20436;-72
2022/06/18 03:56:16;;;;;;;5.90;4.10;;;17.70;99.90;;;;;;5034286;28;20457;-71
2022/06/18 03:58:43;;;;;;;4.20;3.90;;;17.80;99.90;;;;;;5050186;28;20837;-71
2022/06/18 04:01:12;;;;;;;7.13;4.00;;;17.70;99.90;;;;;;5052327;28;20394;-68
2022/06/18 04:03:38;;;;;;;5.10;4.80;;;17.80;99.90;;;;;;5051694;28;20512;-72
2022/06/18 04:06:04;;;;;;;8.53;5.33;;;17.80;99.90;;;;;;5038002;28;20504;-70
2022/06/18 04:08:30;;;;;;;5.00;4.50;;;17.80;99.90;;;;;;5053989;28;20199;-68
2022/06/18 04:10:56;;;;;;;4.23;3.93;;;17.80;99.90;;;;;;5055848;28;20420;-71
2022/06/18 04:13:22;;;;;;;5.50;4.03;;;17.90;99.90;;;;;;5054498;28;20266;-71
2022/06/18 04:15:48;;;;;;;4.27;3.87;;;17.90;99.90;;;;;;5037510;28;20209;-68
2022/06/18 04:18:17;;;;;;;4.80;4.40;;;17.90;99.90;;;;;;5053388;28;20449;-68
2022/06/18 04:20:43;;;;;;;5.27;4.77;;;18.00;99.90;;;;;;5055779;28;20175;-68
2022/06/18 04:23:11;;;;;;;4.23;3.93;;;18.10;99.90;;;;;;5054785;28;20536;-71
2022/06/18 04:25:38;;;;;;;4.53;4.20;;;18.10;99.90;;;;;;5055549;28;20402;-68
2022/06/18 04:28:04;;;;;;;6.20;3.90;;;18.10;99.90;;;;;;5053650;28;20491;-72
2022/06/18 04:30:32;;;;;;;5.60;4.17;;;18.10;99.90;;;;;;5037599;28;20457;-72
2022/06/18 04:32:57;;;;;;;4.60;4.13;;;18.20;99.90;;;;;;5052824;28;20528;-69
2022/06/18 04:35:23;;;;;;;5.00;4.60;;;18.20;99.90;;;;;;5055111;28;20536;-68
2022/06/18 04:37:49;;;;;;;5.53;4.20;;;18.20;99.90;;;;;;5053884;28;20167;-69
2022/06/18 04:40:21;;;;;;;4.70;4.30;;;18.30;99.90;;;;;;5055166;28;20171;-69
2022/06/18 04:42:47;;;;;;;5.10;4.60;;;18.30;99.90;;;;;;5055193;28;20616;-68
2022/06/18 04:45:14;;;;;;;4.70;4.40;;;18.40;99.90;;;;;;5053349;28;20447;-68
2022/06/18 04:47:40;;;;;;;5.63;4.70;;;18.40;99.90;;;;;;5054057;28;20206;-74
2022/06/18 04:50:08;;;;;;;4.67;4.23;;;18.40;99.90;;;;;;5054324;28;20460;-69
2022/06/18 04:52:34;;;;;;;5.10;4.57;;;18.50;99.90;;;;;;5055287;28;20409;-71
2022/06/18 04:54:59;;;;;;;6.40;4.60;;;18.50;99.90;;;;;;5035816;28;20507;-68
2022/06/18 04:57:25;;;;;;;5.53;5.13;;;18.50;99.90;;;;;;5054110;28;20175;-71
2022/06/18 04:59:51;;;;;;;4.90;3.80;;;18.50;99.90;;;;;;5036524;28;20199;-69
2022/06/18 05:02:23;;;;;;;5.43;4.87;;;18.60;99.90;;;;;;5036931;28;20193;-72
2022/06/18 05:04:49;;;;;;;4.87;4.17;;;18.70;99.90;;;;;;5053873;28;20265;-69
2022/06/18 05:07:15;;;;;;;5.00;4.60;;;18.70;99.90;;;;;;5036350;28;20508;-71
2022/06/18 05:09:41;;;;;;;5.30;4.43;;;18.70;99.90;;;;;;5053866;28;20464;-72
2022/06/18 05:12:07;;;;;;;5.33;4.93;;;18.70;99.90;;;;;;5054801;28;20620;-68
2022/06/18 05:14:33;;;;;;;5.17;4.67;;;18.80;99.90;;;;;;5052929;28;20972;-71
2022/06/18 05:17:02;;;;;;;5.03;4.63;;;18.80;99.90;;;;;;5053735;28;20432;-72
2022/06/18 05:19:32;;;;;;;5.97;4.80;;;18.80;99.90;;;;;;5053827;28;20271;-69
2022/06/18 05:21:58;;;;;;;5.50;5.00;;;18.90;99.90;;;;;;5054567;28;20444;-68
2022/06/18 05:24:25;;;;;;;5.37;4.90;;;18.90;99.90;;;;;;5036007;28;20472;-72
2022/06/18 05:26:54;;;;;;;6.30;5.80;;;19.00;99.90;;;;;;5053604;28;20210;-68
2022/06/18 05:29:19;;;;;;;7.10;5.70;;;19.00;99.90;;;;;;5053618;28;20457;-71
2022/06/18 05:31:45;;;;;;;6.90;4.90;;;19.10;99.90;;;;;;5054291;28;20463;-72
2022/06/18 05:34:11;;;;;;;5.10;4.60;;;19.10;99.90;;;;;;5049349;28;20264;-71
2022/06/18 05:36:40;;;;;;;7.40;4.53;;;19.10;99.90;;;;;;5053313;28;20636;-71
2022/06/18 05:39:08;;;;;;;5.70;4.70;;;19.20;99.90;;;;;;5053067;28;20195;-73
2022/06/18 05:41:33;;;;;;;5.47;5.07;;;19.20;99.90;;;;;;5054113;28;20406;-71
2022/06/18 05:43:59;;;;;;;5.30;4.80;;;19.30;99.90;;;;;;5053192;28;20754;-72
2022/06/18 05:46:25;;;;;;;6.47;5.87;;;19.30;99.90;;;;;;5053842;28;20221;-68
2022/06/18 05:48:53;;;;;;;5.50;5.00;;;19.40;99.90;;;;;;5035544;28;20775;-71
2022/06/18 05:51:18;;;;;;;7.27;5.10;;;19.40;99.90;;;;;;5049881;28;20424;-71
2022/06/18 05:53:44;;;;;;;6.50;6.00;;;19.50;99.90;;;;;;5052501;28;20425;-70
2022/06/18 05:56:11;;;;;;;6.43;5.93;;;19.50;99.90;;;;;;5053480;28;20225;-70
2022/06/18 05:58:37;;;;;;;5.93;5.43;;;19.60;99.90;;;;;;5051249;28;20255;-70
2022/06/18 06:01:03;;;;;;;6.30;5.47;;;19.60;99.90;;;;;;5053737;28;20405;-67
2022/06/18 06:03:29;;;;;;;6.20;5.60;;;19.70;99.90;;;;;;5052093;28;20179;-70
2022/06/18 06:05:55;;;;;;;6.57;5.90;;;19.70;99.90;;;;;;5036093;28;20413;-70
2022/06/18 06:08:21;;;;;;;7.07;6.47;;;19.80;99.90;;;;;;5051576;28;20461;-70
2022/06/18 06:13:31;;;;;;;6.73;6.17;;;19.90;99.90;;;;;;5052462;28;20440;-68
2022/06/18 06:15:57;;;;;;;6.40;5.73;;;19.90;99.90;;;;;;5034904;28;20457;-70
2022/06/18 06:18:23;;;;;;;10.33;6.70;;;20.00;99.90;;;;;;5052569;28;20675;-71
2022/06/18 06:20:54;;;;;;;9.70;7.10;;;20.10;99.90;;;;;;5052555;28;20174;-70
2022/06/18 06:23:20;;;;;;;7.73;6.87;;;20.20;99.90;;;;;;5053459;28;20397;-70
2022/06/18 06:25:47;;;;;;;7.00;6.30;;;20.30;99.90;;;;;;5052422;28;20460;-69
2022/06/18 06:28:15;;;;;;;7.87;6.57;;;20.40;99.90;;;;;;5051193;28;20425;-68
2022/06/18 06:30:42;;;;;;;7.90;7.10;;;20.40;99.90;;;;;;5034782;28;20433;-68
2022/06/18 06:33:08;;;;;;;12.57;6.90;;;20.50;99.90;;;;;;5035661;28;20414;-67
2022/06/18 06:35:34;;;;;;;7.23;6.30;;;20.60;99.90;;;;;;5052212;28;20819;-69
2022/06/18 06:38:01;;;;;;;9.50;6.60;;;20.60;99.90;;;;;;5052183;28;20475;-67
2022/06/18 06:40:27;;;;;;;7.63;6.93;;;20.70;99.90;;;;;;5051488;28;20433;-70
2022/06/18 06:42:55;;;;;;;8.07;7.27;;;20.80;99.90;;;;;;5035347;28;20424;-67
2022/06/18 06:45:25;;;;;;;10.17;7.80;;;20.80;99.90;;;;;;5051517;28;20579;-69
2022/06/18 06:47:52;;;;;;;11.00;7.90;;;20.80;99.90;;;;;;5052126;28;20496;-67
2022/06/18 06:50:19;;;;;;;7.27;6.67;;;20.80;99.90;;;;;;5052027;28;20444;-70
2022/06/18 06:52:48;;;;;;;8.47;7.10;;;20.90;99.90;;;;;;5052903;28;20401;-70
2022/06/18 06:58:16;;;;;;;7.03;6.30;;;21.20;99.90;;;;;;5049250;28;20456;-68
2022/06/18 07:00:49;;;;;;;7.33;6.63;;;21.20;99.90;;;;;;5052964;28;20949;-70
2022/06/18 07:03:17;;;;;;;7.20;6.50;;;21.30;99.90;;;;;;5052588;28;20397;-67
2022/06/18 07:05:44;;;;;;;6.77;6.10;;;21.30;99.90;;;;;;5052943;28;20471;-68
2022/06/18 07:08:10;;;;;;;7.03;6.40;;;21.40;99.90;;;;;;5051949;28;20429;-70
2022/06/18 07:10:40;;;;;;;9.60;6.17;;;21.40;99.90;;;;;;5034687;28;20844;-69
2022/06/18 07:13:06;;;;;;;9.40;7.17;;;21.40;99.90;;;;;;5053073;28;20234;-68
2022/06/18 07:15:33;;;;;;;7.60;6.70;;;21.40;99.90;;;;;;5035133;28;20451;-72
2022/06/18 07:17:59;;;;;;;6.40;5.80;;;21.50;99.90;;;;;;5051899;28;20452;-72
2022/06/18 07:20:25;;;;;;;7.57;6.10;;;21.50;99.90;;;;;;5051194;28;20441;-72
2022/06/18 07:22:51;;;;;;;6.37;5.73;;;21.60;99.90;;;;;;5034110;28;20848;-72
2022/06/18 07:25:17;;;;;;;6.93;6.40;;;21.80;99.90;;;;;;5052905;28;20410;-68
2022/06/18 07:27:43;;;;;;;7.33;6.50;;;21.80;99.90;;;;;;5051786;28;20232;-72
2022/06/18 07:30:10;;;;;;;8.50;7.23;;;21.80;99.90;;;;;;5033858;28;20671;-72
2022/06/18 07:32:42;;;;;;;9.07;6.80;;;21.80;99.90;;;;;;5052713;28;20401;-69
2022/06/18 07:35:10;;;;;;;7.90;7.10;;;21.80;99.90;;;;;;5034571;28;20457;-69
2022/06/18 07:37:36;;;;;;;8.20;7.30;;;21.90;99.90;;;;;;5033211;28;20412;-68
2022/06/18 07:40:03;;;;;;;8.20;6.60;;;21.80;99.90;;;;;;5053654;28;20819;-70
2022/06/18 07:42:29;;;;;;;6.43;5.93;;;21.90;99.90;;;;;;5056463;28;20163;-73
2022/06/18 07:44:54;;;;;;;7.80;5.97;;;21.90;99.90;;;;;;5056279;28;20416;-69
2022/06/18 07:47:20;;;;;;;8.37;6.53;;;22.00;99.90;;;;;;5055663;28;20211;-73
2022/06/18 07:49:46;;;;;;;11.43;7.00;;;22.00;99.90;;;;;;5055092;28;20272;-72
2022/06/18 07:52:13;;;;;;;9.10;6.10;;;22.00;99.90;;;;;;5056212;28;20190;-72
2022/06/18 07:54:39;;;;;;;7.30;6.17;;;22.00;99.90;;;;;;5055728;28;20194;-71
2022/06/18 07:57:05;;;;;;;6.97;5.60;;;22.00;99.90;;;;;;5054749;28;20397;-68
2022/06/18 07:59:32;;;;;;;6.57;5.97;;;22.10;99.90;;;;;;5054970;28;20449;-72
2022/06/18 08:01:58;;;;;;;7.40;5.57;;;22.20;99.90;;;;;;5056257;28;20175;-73
2022/06/18 08:04:25;;;;;;;7.57;5.10;;;22.30;99.90;;;;;;5038174;28;20524;-68
2022/06/18 08:06:50;;;;;;;15.73;7.93;;;22.50;99.90;;;;;;5055066;28;20491;-72
2022/06/18 08:09:16;;;;;;;7.83;5.20;;;22.40;99.90;;;;;;5054411;28;20545;-68
2022/06/18 08:11:42;;;;;;;6.57;5.97;;;22.50;99.90;;;;;;5055014;28;20214;-69
2022/06/18 08:14:09;;;;;;;6.53;5.93;;;22.60;99.90;;;;;;5037986;28;20595;-68
2022/06/18 08:16:35;;;;;;;9.77;6.60;;;22.60;99.90;;;;;;5054608;28;20409;-72
2022/06/18 08:19:01;;;;;;;5.50;5.10;;;22.50;99.90;;;;;;5055421;28;20425;-69
2022/06/18 08:21:34;;;;;;;6.83;6.23;;;22.60;99.90;;;;;;5054713;28;20985;-68
2022/06/18 08:24:04;;;;;;;6.80;5.50;;;22.60;99.90;;;;;;5055607;28;20246;-69
2022/06/18 08:26:31;;;;;;;6.27;5.67;;;22.70;99.90;;;;;;5036847;28;21220;-72
2022/06/18 08:28:57;;;;;;;9.03;5.90;;;22.80;99.90;;;;;;5037706;28;20520;-72
2022/06/18 08:31:22;;;;;;;7.43;5.10;;;22.90;99.90;;;;;;5054632;28;20440;-72
2022/06/18 08:33:48;;;;;;;8.87;5.20;;;23.00;99.90;;;;;;5055139;28;20397;-71
2022/06/18 08:36:15;;;;;;;7.37;6.67;;;23.10;99.90;;;;;;5054968;28;20195;-72
2022/06/18 08:38:45;;;;;;;9.80;7.30;;;23.00;99.90;;;;;;5054591;28;20536;-72
2022/06/18 08:41:38;;;;;;;7.57;6.30;;;23.00;99.90;;;;;;5036695;28;20438;-68
2022/06/18 08:44:35;;;;;;;8.37;6.03;;;23.20;99.90;;;;;;5037640;28;20936;-69
2022/06/18 08:47:28;;;;;;;11.30;5.40;;;23.30;99.90;;;;;;5036386;28;20809;-72
2022/06/18 08:50:17;;;;;;;6.77;6.03;;;23.30;99.90;;;;;;5053419;28;20496;-67
2022/06/18 08:53:01;;;;;;;6.77;5.20;;;23.40;99.90;;;;;;5030035;28;20429;-71
2022/06/18 08:55:54;;;;;;;9.73;6.20;;;23.50;99.90;;;;;;5054832;28;20452;-70
2022/06/18 08:58:41;;;;;;;8.77;5.13;;;23.60;99.90;;;;;;5054104;28;21280;-74
2022/06/18 09:01:29;;;;;;;4.73;4.33;;;23.70;99.90;;;;;;5036116;28;20826;-71
2022/06/18 09:04:07;;;;;;;6.17;4.10;;;23.70;99.90;;;;;;5054975;28;20417;-71
2022/06/18 09:06:49;;;;;;;5.93;3.80;;;23.80;99.90;;;;;;5052019;28;20511;-70
2022/06/18 09:09:45;;;;;;;4.17;3.27;;;24.00;99.90;;;;;;5054460;28;20429;-70
2022/06/18 09:12:17;;;;;;;3.50;3.30;;;23.80;99.90;;;;;;5037090;28;20511;-71
2022/06/18 09:14:51;;;;;;;3.63;3.43;;;23.70;99.90;;;;;;5054656;28;20445;-68
2022/06/18 09:17:46;;;;;;;4.17;3.87;;;23.70;99.90;;;;;;5052636;28;20523;-70
2022/06/18 09:20:43;;;;;;;3.57;3.27;;;23.80;99.90;;;;;;4982997;28;20441;-69
2022/06/18 09:23:30;;;;;;;4.77;3.17;;;23.90;99.90;;;;;;5038069;28;20766;-67
2022/06/18 09:25:58;;;;;;;8.10;5.43;;;23.90;99.90;;;;;;5053900;28;20444;-68
2022/06/18 09:28:27;;;;;;;5.20;3.73;;;24.20;99.90;;;;;;5035510;28;20463;-68
2022/06/18 09:31:12;;;;;;;3.73;2.77;;;24.60;99.90;;;;;;5054327;28;20463;-69
2022/06/18 09:34:10;;;;;;;5.70;3.53;;;24.90;99.90;;;;;;5054133;28;20412;-67
2022/06/18 09:36:47;;;;;;;6.20;3.70;;;24.70;99.90;;;;;;5035286;28;20894;-69
2022/06/18 09:39:22;;;;;;;7.13;3.83;;;24.50;99.90;;;;;;5052896;28;20480;-67
2022/06/18 09:42:04;;;;;;;5.97;3.50;;;24.50;99.90;;;;;;5054131;28;20404;-66
2022/06/18 09:45:11;;;;;;;4.77;3.53;;;24.60;99.90;;;;;;5053598;28;20851;-69
2022/06/18 09:47:44;;;;;;;3.10;2.63;;;24.70;99.90;;;;;;5011139;28;20907;-66
2022/06/18 09:50:39;;;;;;;3.30;2.30;;;24.90;99.90;;;;;;5011238;28;20564;-66
2022/06/18 09:53:20;;;;;;;3.50;2.37;;;25.10;99.90;;;;;;5022616;28;20414;-66
2022/06/18 09:55:55;;;;;;;3.00;2.80;;;25.00;99.90;;;;;;5033796;28;20480;-66
2022/06/18 09:58:28;;;;;;;4.10;3.70;;;25.10;99.90;;;;;;5036482;28;20468;-65
2022/06/18 10:00:57;;;;;;;3.33;2.00;;;25.50;99.90;;;;;;5053512;28;20408;-68
2022/06/18 10:09:05;;;;;;;1.43;1.33;;;26.30;99.90;;;;;;5053089;28;20511;-71
2022/06/18 10:11:31;;;;;;;2.07;1.33;;;26.30;99.00;;;;;;5035647;28;20424;-68
2022/06/18 10:14:15;;;;;;;2.60;1.23;;;26.60;99.90;;;;;;5053542;28;20415;-69
2022/06/18 10:17:05;;;;;;;1.50;1.07;;;26.90;98.10;;;;;;5052520;28;20428;-68
2022/06/18 10:19:57;;;;;;;7.43;1.10;;;27.00;98.20;;;;;;5032523;28;20447;-69
2022/06/18 10:22:51;;;;;;;1.00;0.87;;;27.20;98.20;;;;;;5052732;28;20528;-74
2022/06/18 10:25:45;;;;;;;1.30;1.10;;;27.00;98.10;;;;;;5053503;28;20386;-74
2022/06/18 10:28:36;;;;;;;1.57;1.10;;;26.80;98.10;;;;;;5051392;28;20957;-73
2022/06/18 10:31:08;;;;;;;1.90;1.00;;;27.20;98.20;;;;;;5053343;28;20386;-72
2022/06/18 10:34:09;;;;;;;1.33;0.90;;;27.70;98.30;;;;;;5053182;28;20394;-73
2022/06/18 10:37:11;;;;;;;1.30;1.20;;;27.90;98.40;;;;;;5034482;28;20417;-68
2022/06/18 10:40:07;;;;;;;1.60;1.00;;;27.50;98.30;;;;;;5033759;28;20544;-69
2022/06/18 10:42:35;;;;;;;1.10;0.90;;;27.60;94.60;;;;;;5053205;28;20393;-73
2022/06/18 10:45:24;;;;;;;1.20;0.80;;;27.90;97.70;;;;;;5053124;28;20493;-73
2022/06/18 10:47:53;;;;;;;1.77;1.20;;;28.30;88.30;;;;;;5034446;28;20406;-69
2022/06/18 10:50:21;;;;;;;1.67;0.90;;;28.50;86.80;;;;;;5034381;28;20924;-69
2022/06/18 10:53:04;;;;;;;1.20;0.90;;;28.60;85.80;;;;;;5035379;28;20409;-72
2022/06/18 10:55:30;;;;;;;1.20;0.83;;;29.10;93.60;;;;;;5052313;28;21017;-69
2022/06/18 10:58:09;;;;;;;1.60;0.80;;;29.40;82.10;;;;;;5052079;28;20426;-70
2022/06/18 11:00:34;;;;;;;1.03;0.80;;;29.50;73.50;;;;;;5051938;28;20435;-69
2022/06/18 11:03:03;;;;;;;1.00;0.80;;;29.30;69.60;;;;;;5052855;28;20402;-69
2022/06/18 11:05:38;;;;;;;4.90;1.30;;;29.20;71.60;;;;;;5052864;28;20178;-73
2022/06/18 11:08:17;;;;;;;1.20;1.00;;;29.40;69.10;;;;;;5051950;28;20404;-71
2022/06/18 11:10:50;;;;;;;2.20;0.97;;;29.60;61.30;;;;;;5051416;28;20465;-69
2022/06/18 11:13:30;;;;;;;2.13;0.90;;;29.60;59.10;;;;;;5053668;28;20443;-73
2022/06/18 11:16:03;;;;;;;1.00;0.80;;;29.50;53.30;;;;;;5057062;28;20455;-73
2022/06/18 11:18:29;;;;;;;1.43;0.73;;;29.40;54.70;;;;;;5055903;28;20512;-70
2022/06/18 11:21:00;;;;;;;1.60;1.00;;;29.50;50.80;;;;;;5037860;28;20483;-69
2022/06/18 11:23:27;;;;;;;7.13;1.17;;;29.40;52.10;;;;;;5056740;28;20174;-72
2022/06/18 11:25:55;;;;;;;1.93;0.80;;;29.70;51.20;;;;;;5056893;28;20397;-73
2022/06/18 11:28:36;;;;;;;1.30;0.80;;;29.70;44.20;;;;;;5055751;28;20500;-74
2022/06/18 11:31:06;;;;;;;1.13;0.70;;;29.60;38.00;;;;;;5055154;28;21001;-69
2022/06/18 11:33:39;;;;;;;1.57;0.83;;;29.60;38.50;;;;;;5056575;28;20879;-73
2022/06/18 11:36:19;;;;;;;1.10;0.80;;;29.70;42.50;;;;;;5056445;28;20453;-71
2022/06/18 11:38:54;;;;;;;2.60;0.70;;;30.00;42.10;;;;;;5054715;28;20416;-70
2022/06/18 11:41:35;;;;;;;1.20;1.03;;;30.10;44.70;;;;;;5056553;28;20412;-74
2022/06/18 11:44:19;;;;;;;2.20;0.80;;;30.40;42.90;;;;;;5038898;28;20409;-71
2022/06/18 11:46:49;;;;;;;0.97;0.70;;;30.60;45.20;;;;;;5055341;28;20405;-70
2022/06/18 11:49:42;;;;;;;1.00;0.80;;;30.40;35.00;;;;;;5054795;28;20529;-69
2022/06/18 11:52:31;;;;;;;1.10;0.70;;;30.40;35.00;;;;;;5056359;28;20409;-73
2022/06/18 11:55:14;;;;;;;1.13;0.70;;;30.50;33.60;;;;;;5038126;28;20531;-69
2022/06/18 11:58:06;;;;;;;1.30;0.73;;;30.60;27.30;;;;;;5055284;28;20493;-69
2022/06/18 12:00:45;;;;;;;0.90;0.60;;;30.40;24.70;;;;;;5055069;28;20479;-69
2022/06/18 12:03:17;;;;;;;0.90;0.63;;;30.80;29.70;;;;;;5056055;28;20405;-72
2022/06/18 12:06:32;;;;;;;1.20;0.77;;;30.90;23.40;;;;;;5056019;28;20818;-72
2022/06/18 12:08:58;;;;;;;1.00;0.70;;;30.60;23.00;;;;;;5032446;28;20437;-69
2022/06/18 12:12:01;;;;;;;1.20;0.80;;;30.90;23.10;;;;;;5036524;28;20463;-73
2022/06/18 12:14:30;;;;;;;1.20;1.00;;;31.30;25.90;;;;;;5056252;28;20412;-72
2022/06/18 12:17:06;;;;;;;1.57;0.80;;;31.20;24.00;;;;;;5054874;28;21007;-70
2022/06/18 12:19:52;;;;;;;2.80;0.70;;;31.60;22.00;;;;;;5055537;28;20452;-70
2022/06/18 12:22:30;;;;;;;1.10;0.70;;;31.90;21.00;;;;;;5038187;28;20496;-70
2022/06/18 12:25:06;;;;;;;1.77;0.70;;;31.30;4.90;;;;;;5052996;28;20590;-71
2022/06/18 12:27:37;;;;;;;1.00;0.67;;;30.80;1.00;;;;;;5054754;28;20401;-69
2022/06/18 12:30:15;;;;;;;1.00;0.73;;;30.20;1.00;;;;;;5055429;28;20574;-70
2022/06/18 12:32:52;;;;;;;2.20;0.80;;;29.70;1.00;;;;;;5055667;28;20881;-72
2022/06/18 12:35:43;;;;;;;4.70;0.97;;;29.00;1.00;;;;;;5054376;28;20461;-70
2022/06/18 12:38:41;;;;;;;1.40;0.70;;;28.90;1.00;;;;;;5054469;28;20429;-71
2022/06/18 12:41:40;;;;;;;2.30;0.67;;;29.40;1.00;;;;;;5054358;28;20504;-68
2022/06/18 12:44:24;;;;;;;1.00;0.73;;;29.20;1.00;;;;;;5054965;28;21046;-70
2022/06/18 12:47:06;;;;;;;1.47;0.60;;;28.90;1.00;;;;;;5054414;28;20512;-69
2022/06/18 12:49:46;;;;;;;1.07;0.60;;;29.10;1.00;;;;;;5055104;28;20433;-72
2022/06/18 12:52:15;;;;;;;0.90;0.60;;;29.10;1.00;;;;;;5054277;28;20436;-73
2022/06/18 12:55:16;;;;;;;1.20;0.80;;;29.00;1.00;;;;;;5054266;28;20543;-70
2022/06/18 12:58:06;;;;;;;1.70;1.00;;;29.10;2.50;;;;;;5023722;28;20564;-71
2022/06/18 13:00:36;;;;;;;2.60;0.60;;;29.30;4.00;;;;;;5055085;28;20450;-72
2022/06/18 13:03:18;;;;;;;1.73;0.90;;;29.70;4.90;;;;;;5036587;28;20429;-70
2022/06/18 13:05:49;;;;;;;2.20;0.67;;;29.60;1.40;;;;;;5036750;28;20496;-72
2022/06/18 13:08:34;;;;;;;2.70;1.30;;;29.40;1.00;;;;;;5053884;28;20976;-70
2022/06/18 13:11:39;;;;;;;1.30;0.80;;;29.30;1.00;;;;;;5054454;28;20401;-72
2022/06/18 13:14:35;;;;;;;1.40;0.90;;;29.30;1.30;;;;;;5053367;28;20429;-69
2022/06/18 13:17:14;;;;;;;1.07;0.80;;;29.20;2.70;;;;;;5053844;28;20508;-69
2022/06/18 13:19:45;;;;;;;3.70;1.20;;;29.50;1.00;;;;;;5054567;28;20464;-69
2022/06/18 13:22:12;;;;;;;1.40;0.80;;;30.00;3.30;;;;;;5053151;28;20436;-72
2022/06/18 13:30:34;;;;;;;1.20;0.80;;;30.90;6.20;;;;;;5054482;28;20416;-71
2022/06/18 13:33:13;;;;;;;2.33;1.03;;;30.60;1.00;;;;;;5053538;28;20937;-71
2022/06/18 13:35:50;;;;;;;1.93;0.90;;;30.10;1.00;;;;;;5054158;28;20590;-70
2022/06/18 13:38:34;;;;;;;1.00;0.70;;;29.50;1.00;;;;;;5053469;28;20424;-71